sensor_id;sensor_type;location;lat;lon;timestamp;pressure;altitude;pressure_sealevel;temperature;humidity
21203;BME280;10759;51.982;9.232;2023-04-22T00:00:06;99754.03;;;14.51;60.54
21203;BME280;10759;51.982;9.232;2023-04-22T00:02:36;99773.97;;;14.63;60.85
21203;BME280;10759;51.982;9.232;2023-04-22T00:05:05;99775.22;;;14.57;60.90
21203;BME280;10759;51.982;9.232;2023-04-22T00:07:34;99740.78;;;14.19;62.15
21203;BME280;10759;51.982;9.232;2023-04-22T00:10:02;99774.25;;;14.29;62.24
21203;BME280;10759;51.982;9.232;2023-04-22T00:12:30;99773.88;;;14.35;62.73
21203;BME280;10759;51.982;9.232;2023-04-22T00:14:58;99769.56;;;14.18;63.71
21203;BME280;10759;51.982;9.232;2023-04-22T00:17:26;99770.88;;;14.11;64.50
21203;BME280;10759;51.982;9.232;2023-04-22T00:19:55;99766.47;;;13.96;65.07
21203;BME280;10759;51.982;9.232;2023-04-22T00:22:23;99758.09;;;14.01;64.68
21203;BME280;10759;51.982;9.232;2023-04-22T00:24:51;99766.75;;;13.91;65.34
21203;BME280;10759;51.982;9.232;2023-04-22T00:27:19;99781.94;;;13.92;65.77
21203;BME280;10759;51.982;9.232;2023-04-22T00:29:47;99778.53;;;13.74;66.89
21203;BME280;10759;51.982;9.232;2023-04-22T00:32:15;99761.09;;;13.51;67.77
21203;BME280;10759;51.982;9.232;2023-04-22T00:34:42;99774.94;;;13.60;67.73
21203;BME280;10759;51.982;9.232;2023-04-22T00:37:12;99755.13;;;13.46;68.27
21203;BME280;10759;51.982;9.232;2023-04-22T00:39:40;99766.03;;;13.43;68.73
21203;BME280;10759;51.982;9.232;2023-04-22T00:42:08;99767.09;;;13.41;69.46
21203;BME280;10759;51.982;9.232;2023-04-22T00:44:36;99775.38;;;13.22;70.16
21203;BME280;10759;51.982;9.232;2023-04-22T00:47:04;99778.72;;;13.25;70.63
21203;BME280;10759;51.982;9.232;2023-04-22T00:49:33;99777.94;;;13.23;70.54
21203;BME280;10759;51.982;9.232;2023-04-22T00:52:01;99768.94;;;13.24;70.87
21203;BME280;10759;51.982;9.232;2023-04-22T00:54:32;99766.50;;;13.20;71.01
21203;BME280;10759;51.982;9.232;2023-04-22T00:57:01;99761.72;;;13.25;70.28
21203;BME280;10759;51.982;9.232;2023-04-22T00:59:29;99669.59;;;12.59;71.15
21203;BME280;10759;51.982;9.232;2023-04-22T01:01:57;99761.28;;;13.17;71.07
21203;BME280;10759;51.982;9.232;2023-04-22T01:04:26;99745.44;;;13.12;70.85
21203;BME280;10759;51.982;9.232;2023-04-22T01:06:55;99761.41;;;13.15;70.98
21203;BME280;10759;51.982;9.232;2023-04-22T01:09:23;99755.78;;;12.88;72.48
21203;BME280;10759;51.982;9.232;2023-04-22T01:11:52;99766.91;;;12.66;73.61
21203;BME280;10759;51.982;9.232;2023-04-22T01:14:22;99765.50;;;12.59;74.63
21203;BME280;10759;51.982;9.232;2023-04-22T01:16:50;99777.28;;;12.40;75.41
21203;BME280;10759;51.982;9.232;2023-04-22T01:19:19;99771.56;;;12.31;76.32
21203;BME280;10759;51.982;9.232;2023-04-22T01:21:49;99747.91;;;12.04;77.46
21203;BME280;10759;51.982;9.232;2023-04-22T01:24:19;99765.69;;;12.07;77.76
21203;BME280;10759;51.982;9.232;2023-04-22T01:26:47;99759.72;;;12.17;77.17
21203;BME280;10759;51.982;9.232;2023-04-22T01:29:15;99762.09;;;12.23;76.67
21203;BME280;10759;51.982;9.232;2023-04-22T01:31:43;99768.88;;;12.13;77.07
21203;BME280;10759;51.982;9.232;2023-04-22T01:34:11;99752.16;;;12.08;77.13
21203;BME280;10759;51.982;9.232;2023-04-22T01:36:39;99667.75;;;11.63;77.14
21203;BME280;10759;51.982;9.232;2023-04-22T01:39:07;99756.91;;;12.03;77.60
21203;BME280;10759;51.982;9.232;2023-04-22T01:41:36;99756.38;;;11.96;77.82
21203;BME280;10759;51.982;9.232;2023-04-22T01:44:04;99756.03;;;12.02;77.67
21203;BME280;10759;51.982;9.232;2023-04-22T01:46:33;99758.53;;;11.90;78.06
21203;BME280;10759;51.982;9.232;2023-04-22T01:49:01;99761.91;;;11.93;78.37
21203;BME280;10759;51.982;9.232;2023-04-22T01:51:29;99750.41;;;11.91;78.52
21203;BME280;10759;51.982;9.232;2023-04-22T01:53:57;99750.38;;;11.74;79.23
21203;BME280;10759;51.982;9.232;2023-04-22T01:56:25;99754.06;;;11.71;79.53
21203;BME280;10759;51.982;9.232;2023-04-22T01:58:55;99751.91;;;11.62;79.76
21203;BME280;10759;51.982;9.232;2023-04-22T02:01:23;99759.84;;;11.64;79.69
21203;BME280;10759;51.982;9.232;2023-04-22T02:03:51;99754.59;;;11.45;80.80
21203;BME280;10759;51.982;9.232;2023-04-22T02:06:19;99762.47;;;11.30;81.60
21203;BME280;10759;51.982;9.232;2023-04-22T02:08:47;99755.22;;;11.32;81.86
21203;BME280;10759;51.982;9.232;2023-04-22T02:11:14;99752.13;;;11.40;81.93
21203;BME280;10759;51.982;9.232;2023-04-22T02:13:42;99751.75;;;11.30;82.14
21203;BME280;10759;51.982;9.232;2023-04-22T02:16:11;99767.25;;;11.24;82.00
21203;BME280;10759;51.982;9.232;2023-04-22T02:18:40;99755.84;;;11.20;82.52
21203;BME280;10759;51.982;9.232;2023-04-22T02:21:08;99748.03;;;11.15;83.07
21203;BME280;10759;51.982;9.232;2023-04-22T02:23:39;99761.09;;;11.04;83.57
21203;BME280;10759;51.982;9.232;2023-04-22T02:26:07;99756.59;;;11.05;83.64
21203;BME280;10759;51.982;9.232;2023-04-22T02:28:35;99756.09;;;10.96;84.49
21203;BME280;10759;51.982;9.232;2023-04-22T02:31:03;99732.28;;;10.90;83.76
21203;BME280;10759;51.982;9.232;2023-04-22T02:33:32;99755.03;;;11.01;84.20
21203;BME280;10759;51.982;9.232;2023-04-22T02:36:00;99734.38;;;11.03;83.97
21203;BME280;10759;51.982;9.232;2023-04-22T02:38:28;99752.97;;;11.06;83.29
21203;BME280;10759;51.982;9.232;2023-04-22T02:40:56;99740.78;;;10.81;83.88
21203;BME280;10759;51.982;9.232;2023-04-22T02:43:24;99738.91;;;10.83;84.22
21203;BME280;10759;51.982;9.232;2023-04-22T02:45:52;99754.03;;;10.84;84.51
21203;BME280;10759;51.982;9.232;2023-04-22T02:48:20;99755.09;;;10.80;84.56
21203;BME280;10759;51.982;9.232;2023-04-22T02:50:49;99760.47;;;10.80;84.97
21203;BME280;10759;51.982;9.232;2023-04-22T02:53:17;99748.97;;;10.78;84.77
21203;BME280;10759;51.982;9.232;2023-04-22T02:55:45;99751.41;;;10.83;84.71
21203;BME280;10759;51.982;9.232;2023-04-22T02:58:13;99656.63;;;10.30;84.41
21203;BME280;10759;51.982;9.232;2023-04-22T03:00:41;99754.47;;;10.75;85.12
21203;BME280;10759;51.982;9.232;2023-04-22T03:03:09;99722.03;;;10.62;85.05
21203;BME280;10759;51.982;9.232;2023-04-22T03:05:37;99753.28;;;10.63;85.50
21203;BME280;10759;51.982;9.232;2023-04-22T03:08:06;99768.38;;;10.45;86.60
21203;BME280;10759;51.982;9.232;2023-04-22T03:10:35;99746.53;;;10.36;86.22
21203;BME280;10759;51.982;9.232;2023-04-22T03:13:03;99755.50;;;10.35;87.31
21203;BME280;10759;51.982;9.232;2023-04-22T03:15:30;99752.41;;;10.23;88.51
21203;BME280;10759;51.982;9.232;2023-04-22T03:17:58;99729.97;;;9.88;88.68
21203;BME280;10759;51.982;9.232;2023-04-22T03:20:27;99749.38;;;10.12;88.85
21203;BME280;10759;51.982;9.232;2023-04-22T03:22:55;99747.50;;;10.14;88.58
21203;BME280;10759;51.982;9.232;2023-04-22T03:25:26;99741.91;;;10.00;89.72
21203;BME280;10759;51.982;9.232;2023-04-22T03:27:55;99729.75;;;9.93;89.65
21203;BME280;10759;51.982;9.232;2023-04-22T03:30:24;99747.34;;;9.98;89.80
21203;BME280;10759;51.982;9.232;2023-04-22T03:32:52;99743.84;;;9.96;89.99
21203;BME280;10759;51.982;9.232;2023-04-22T03:35:24;99717.78;;;9.81;90.22
21203;BME280;10759;51.982;9.232;2023-04-22T03:37:54;99726.63;;;9.83;90.58
21203;BME280;10759;51.982;9.232;2023-04-22T03:40:29;99737.13;;;9.87;90.84
21203;BME280;10759;51.982;9.232;2023-04-22T03:42:59;99732.13;;;9.80;90.58
21203;BME280;10759;51.982;9.232;2023-04-22T03:45:27;99738.03;;;9.86;90.73
21203;BME280;10759;51.982;9.232;2023-04-22T03:48:27;99732.63;;;9.88;90.82
21203;BME280;10759;51.982;9.232;2023-04-22T03:51:04;99740.25;;;9.97;91.21
21203;BME280;10759;51.982;9.232;2023-04-22T03:53:35;99741.97;;;9.98;90.31
21203;BME280;10759;51.982;9.232;2023-04-22T03:56:05;99744.59;;;10.00;90.60
21203;BME280;10759;51.982;9.232;2023-04-22T03:58:37;99743.44;;;10.05;90.54
21203;BME280;10759;51.982;9.232;2023-04-22T04:01:06;99736.47;;;10.01;90.84
21203;BME280;10759;51.982;9.232;2023-04-22T04:03:35;99738.38;;;9.99;91.36
21203;BME280;10759;51.982;9.232;2023-04-22T04:06:05;99741.66;;;10.25;90.48
21203;BME280;10759;51.982;9.232;2023-04-22T04:08:33;99738.69;;;10.31;90.17
21203;BME280;10759;51.982;9.232;2023-04-22T04:11:01;99738.00;;;10.26;90.19
21203;BME280;10759;51.982;9.232;2023-04-22T04:13:30;99710.09;;;10.13;90.19
21203;BME280;10759;51.982;9.232;2023-04-22T04:16:20;99714.06;;;10.23;90.00
21203;BME280;10759;51.982;9.232;2023-04-22T04:18:55;99723.47;;;10.13;90.44
21203;BME280;10759;51.982;9.232;2023-04-22T04:21:25;99732.59;;;10.27;90.76
21203;BME280;10759;51.982;9.232;2023-04-22T04:23:54;99734.03;;;10.36;90.40
21203;BME280;10759;51.982;9.232;2023-04-22T04:26:26;99738.81;;;10.48;90.08
21203;BME280;10759;51.982;9.232;2023-04-22T04:29:04;99736.91;;;10.50;89.76
21203;BME280;10759;51.982;9.232;2023-04-22T04:31:32;99736.91;;;10.50;90.13
21203;BME280;10759;51.982;9.232;2023-04-22T04:34:01;99711.66;;;10.37;90.14
21203;BME280;10759;51.982;9.232;2023-04-22T04:36:29;99679.94;;;10.28;89.87
21203;BME280;10759;51.982;9.232;2023-04-22T04:39:09;99732.22;;;10.73;89.52
21203;BME280;10759;51.982;9.232;2023-04-22T04:41:38;99733.09;;;11.10;88.11
21203;BME280;10759;51.982;9.232;2023-04-22T04:44:08;99730.81;;;11.20;86.85
21203;BME280;10759;51.982;9.232;2023-04-22T04:46:37;99727.03;;;11.41;86.35
21203;BME280;10759;51.982;9.232;2023-04-22T04:49:06;99678.38;;;11.31;85.29
21203;BME280;10759;51.982;9.232;2023-04-22T04:51:54;99723.16;;;11.64;84.73
21203;BME280;10759;51.982;9.232;2023-04-22T04:54:22;99723.47;;;11.75;84.70
21203;BME280;10759;51.982;9.232;2023-04-22T04:56:50;99678.81;;;11.57;83.93
21203;BME280;10759;51.982;9.232;2023-04-22T04:59:19;99684.94;;;11.59;84.69
21203;BME280;10759;51.982;9.232;2023-04-22T05:01:47;99722.84;;;11.70;84.78
21203;BME280;10759;51.982;9.232;2023-04-22T05:04:16;99721.72;;;11.74;84.92
21203;BME280;10759;51.982;9.232;2023-04-22T05:06:44;99724.25;;;11.77;84.98
21203;BME280;10759;51.982;9.232;2023-04-22T05:09:12;99721.81;;;11.90;84.50
21203;BME280;10759;51.982;9.232;2023-04-22T05:11:42;99722.97;;;11.85;84.96
21203;BME280;10759;51.982;9.232;2023-04-22T05:14:15;99692.22;;;11.74;85.49
21203;BME280;10759;51.982;9.232;2023-04-22T05:16:46;99729.25;;;12.01;84.99
21203;BME280;10759;51.982;9.232;2023-04-22T05:19:14;99735.28;;;12.06;85.47
21203;BME280;10759;51.982;9.232;2023-04-22T05:21:43;99733.56;;;12.21;85.18
21203;BME280;10759;51.982;9.232;2023-04-22T05:24:11;99737.06;;;12.39;84.50
21203;BME280;10759;51.982;9.232;2023-04-22T05:26:39;99739.91;;;12.52;83.73
21203;BME280;10759;51.982;9.232;2023-04-22T05:29:13;99724.91;;;12.48;83.73
21203;BME280;10759;51.982;9.232;2023-04-22T05:31:41;99743.91;;;12.76;83.53
21203;BME280;10759;51.982;9.232;2023-04-22T05:34:10;99739.06;;;12.83;83.15
21203;BME280;10759;51.982;9.232;2023-04-22T05:36:39;99751.63;;;12.98;82.96
21203;BME280;10759;51.982;9.232;2023-04-22T05:39:07;99668.06;;;12.55;82.97
21203;BME280;10759;51.982;9.232;2023-04-22T05:41:35;99744.94;;;13.05;83.54
21203;BME280;10759;51.982;9.232;2023-04-22T05:44:06;99754.56;;;13.09;83.50
21203;BME280;10759;51.982;9.232;2023-04-22T05:46:34;99733.75;;;12.97;84.46
21203;BME280;10759;51.982;9.232;2023-04-22T05:49:03;99753.22;;;13.17;84.48
21203;BME280;10759;51.982;9.232;2023-04-22T05:51:58;99733.84;;;13.26;82.51
21203;BME280;10759;51.982;9.232;2023-04-22T05:54:33;99743.56;;;13.44;81.85
21203;BME280;10759;51.982;9.232;2023-04-22T05:57:02;99741.09;;;13.56;82.31
21203;BME280;10759;51.982;9.232;2023-04-22T05:59:30;99727.16;;;13.63;81.51
21203;BME280;10759;51.982;9.232;2023-04-22T06:01:58;99737.75;;;13.81;80.30
21203;BME280;10759;51.982;9.232;2023-04-22T06:04:26;99738.25;;;13.87;79.36
21203;BME280;10759;51.982;9.232;2023-04-22T06:06:55;99737.41;;;14.01;79.46
21203;BME280;10759;51.982;9.232;2023-04-22T06:09:24;99725.00;;;14.13;79.76
21203;BME280;10759;51.982;9.232;2023-04-22T06:11:52;99733.75;;;14.16;77.12
21203;BME280;10759;51.982;9.232;2023-04-22T06:14:20;99719.31;;;14.17;76.90
21203;BME280;10759;51.982;9.232;2023-04-22T06:16:48;99731.34;;;14.41;77.99
21203;BME280;10759;51.982;9.232;2023-04-22T06:19:18;99726.03;;;14.53;77.66
21203;BME280;10759;51.982;9.232;2023-04-22T06:21:46;99720.16;;;14.61;78.47
21203;BME280;10759;51.982;9.232;2023-04-22T06:24:15;99726.78;;;14.70;77.86
21203;BME280;10759;51.982;9.232;2023-04-22T06:26:44;99725.31;;;14.78;76.20
21203;BME280;10759;51.982;9.232;2023-04-22T06:29:12;99731.94;;;14.87;77.64
21203;BME280;10759;51.982;9.232;2023-04-22T06:31:41;99726.97;;;14.94;77.42
21203;BME280;10759;51.982;9.232;2023-04-22T06:34:09;99729.84;;;15.05;77.22
21203;BME280;10759;51.982;9.232;2023-04-22T06:36:37;99733.09;;;15.10;75.17
21203;BME280;10759;51.982;9.232;2023-04-22T06:39:05;99734.03;;;15.23;74.66
21203;BME280;10759;51.982;9.232;2023-04-22T06:41:43;99680.72;;;15.00;73.68
21203;BME280;10759;51.982;9.232;2023-04-22T06:44:31;99730.81;;;15.44;72.48
21203;BME280;10759;51.982;9.232;2023-04-22T06:47:21;99734.94;;;15.62;74.01
21203;BME280;10759;51.982;9.232;2023-04-22T06:49:58;99700.59;;;15.39;72.79
21203;BME280;10759;51.982;9.232;2023-04-22T06:52:35;99720.53;;;15.76;70.88
21203;BME280;10759;51.982;9.232;2023-04-22T06:55:03;99721.59;;;15.99;68.98
21203;BME280;10759;51.982;9.232;2023-04-22T06:57:33;99727.75;;;16.14;70.33
21203;BME280;10759;51.982;9.232;2023-04-22T07:00:01;99727.63;;;16.28;69.54
21203;BME280;10759;51.982;9.232;2023-04-22T07:02:30;99552.06;;;15.64;68.26
21203;BME280;10759;51.982;9.232;2023-04-22T07:04:58;99723.16;;;16.90;66.73
21203;BME280;10759;51.982;9.232;2023-04-22T07:07:26;99700.81;;;16.75;66.77
21203;BME280;10759;51.982;9.232;2023-04-22T07:09:54;99724.84;;;16.67;68.28
21203;BME280;10759;51.982;9.232;2023-04-22T07:12:26;99726.06;;;17.00;65.80
21203;BME280;10759;51.982;9.232;2023-04-22T07:14:55;99703.81;;;16.83;64.62
21203;BME280;10759;51.982;9.232;2023-04-22T07:17:23;99717.50;;;17.06;63.07
21203;BME280;10759;51.982;9.232;2023-04-22T07:19:50;99692.56;;;16.89;63.03
21203;BME280;10759;51.982;9.232;2023-04-22T07:22:18;99626.31;;;16.58;62.27
21203;BME280;10759;51.982;9.232;2023-04-22T07:24:46;99716.59;;;17.05;61.78
21203;BME280;10759;51.982;9.232;2023-04-22T07:27:14;99716.84;;;17.02;61.83
21203;BME280;10759;51.982;9.232;2023-04-22T07:29:42;99712.09;;;17.06;61.44
21203;BME280;10759;51.982;9.232;2023-04-22T07:32:13;99712.13;;;16.93;62.40
21203;BME280;10759;51.982;9.232;2023-04-22T07:34:40;99710.59;;;17.13;60.61
21203;BME280;10759;51.982;9.232;2023-04-22T07:37:08;99709.31;;;17.30;60.22
21203;BME280;10759;51.982;9.232;2023-04-22T07:39:36;99710.25;;;17.42;63.96
21203;BME280;10759;51.982;9.232;2023-04-22T07:42:05;99714.97;;;17.51;60.96
21203;BME280;10759;51.982;9.232;2023-04-22T07:44:32;99709.78;;;17.59;59.63
21203;BME280;10759;51.982;9.232;2023-04-22T07:47:03;99708.22;;;17.68;57.83
21203;BME280;10759;51.982;9.232;2023-04-22T07:49:34;99713.25;;;17.61;60.40
21203;BME280;10759;51.982;9.232;2023-04-22T07:52:02;99668.41;;;17.57;61.79
21203;BME280;10759;51.982;9.232;2023-04-22T07:54:30;99709.16;;;17.91;57.54
21203;BME280;10759;51.982;9.232;2023-04-22T07:56:58;99705.66;;;17.77;57.79
21203;BME280;10759;51.982;9.232;2023-04-22T07:59:27;99711.88;;;17.91;56.02
21203;BME280;10759;51.982;9.232;2023-04-22T08:01:55;99694.25;;;17.96;57.72
21203;BME280;10759;51.982;9.232;2023-04-22T08:04:22;99702.03;;;18.12;56.92
21203;BME280;10759;51.982;9.232;2023-04-22T08:06:52;99710.91;;;18.37;55.98
21203;BME280;10759;51.982;9.232;2023-04-22T08:09:21;99708.91;;;18.50;56.27
21203;BME280;10759;51.982;9.232;2023-04-22T08:11:51;99684.97;;;18.66;57.89
21203;BME280;10759;51.982;9.232;2023-04-22T08:14:19;99696.41;;;18.70;54.14
21203;BME280;10759;51.982;9.232;2023-04-22T08:16:46;99634.56;;;18.53;52.54
21203;BME280;10759;51.982;9.232;2023-04-22T08:19:14;99698.00;;;18.95;53.61
21203;BME280;10759;51.982;9.232;2023-04-22T08:21:42;99694.50;;;19.04;51.72
21203;BME280;10759;51.982;9.232;2023-04-22T08:24:11;99684.09;;;19.21;52.66
21203;BME280;10759;51.982;9.232;2023-04-22T08:26:39;99651.53;;;19.09;51.18
21203;BME280;10759;51.982;9.232;2023-04-22T08:29:07;99666.47;;;19.36;51.22
21203;BME280;10759;51.982;9.232;2023-04-22T08:31:36;99651.75;;;19.39;49.46
21203;BME280;10759;51.982;9.232;2023-04-22T08:34:03;99684.50;;;19.37;49.42
21203;BME280;10759;51.982;9.232;2023-04-22T08:36:31;99688.63;;;19.52;51.85
21203;BME280;10759;51.982;9.232;2023-04-22T08:38:59;99680.28;;;19.44;49.75
21203;BME280;10759;51.982;9.232;2023-04-22T08:41:29;99666.53;;;19.46;50.06
21203;BME280;10759;51.982;9.232;2023-04-22T08:44:00;99674.19;;;19.73;53.63
21203;BME280;10759;51.982;9.232;2023-04-22T08:46:29;99673.72;;;19.68;50.02
21203;BME280;10759;51.982;9.232;2023-04-22T08:48:58;99671.88;;;19.68;49.11
21203;BME280;10759;51.982;9.232;2023-04-22T08:51:30;99667.84;;;19.84;49.29
21203;BME280;10759;51.982;9.232;2023-04-22T08:53:59;99657.19;;;20.02;51.41
21203;BME280;10759;51.982;9.232;2023-04-22T08:56:29;99610.47;;;19.87;48.16
21203;BME280;10759;51.982;9.232;2023-04-22T08:58:57;99661.16;;;20.28;48.05
21203;BME280;10759;51.982;9.232;2023-04-22T09:01:25;99673.66;;;20.41;50.32
21203;BME280;10759;51.982;9.232;2023-04-22T09:03:57;99649.44;;;20.47;49.12
21203;BME280;10759;51.982;9.232;2023-04-22T09:06:26;99662.50;;;20.44;49.66
21203;BME280;10759;51.982;9.232;2023-04-22T09:08:54;99662.25;;;20.56;47.28
21203;BME280;10759;51.982;9.232;2023-04-22T09:11:26;99653.69;;;20.61;49.06
21203;BME280;10759;51.982;9.232;2023-04-22T09:13:55;99636.25;;;20.43;46.77
21203;BME280;10759;51.982;9.232;2023-04-22T09:16:23;99656.44;;;20.71;46.07
21203;BME280;10759;51.982;9.232;2023-04-22T09:18:51;99582.44;;;20.36;46.01
21203;BME280;10759;51.982;9.232;2023-04-22T09:21:19;99649.84;;;20.83;45.25
21203;BME280;10759;51.982;9.232;2023-04-22T09:23:49;99637.09;;;20.93;46.35
21203;BME280;10759;51.982;9.232;2023-04-22T09:26:18;99636.53;;;20.80;46.18
21203;BME280;10759;51.982;9.232;2023-04-22T09:28:49;99642.78;;;20.61;45.12
21203;BME280;10759;51.982;9.232;2023-04-22T09:31:19;99649.41;;;20.78;45.90
21203;BME280;10759;51.982;9.232;2023-04-22T09:33:49;99614.44;;;20.73;45.33
21203;BME280;10759;51.982;9.232;2023-04-22T09:36:20;99620.03;;;20.82;45.21
21203;BME280;10759;51.982;9.232;2023-04-22T09:38:53;99594.38;;;20.94;45.41
21203;BME280;10759;51.982;9.232;2023-04-22T09:41:27;99633.97;;;21.17;45.41
21203;BME280;10759;51.982;9.232;2023-04-22T09:43:56;99638.28;;;21.39;44.72
21203;BME280;10759;51.982;9.232;2023-04-22T09:46:27;99637.22;;;21.31;43.95
21203;BME280;10759;51.982;9.232;2023-04-22T09:48:57;99634.22;;;21.43;44.90
21203;BME280;10759;51.982;9.232;2023-04-22T09:51:26;99624.34;;;21.42;44.39
21203;BME280;10759;51.982;9.232;2023-04-22T09:53:59;99625.91;;;21.45;44.53
21203;BME280;10759;51.982;9.232;2023-04-22T09:56:40;99618.56;;;21.65;43.80
21203;BME280;10759;51.982;9.232;2023-04-22T09:59:08;99623.84;;;21.76;43.89
21203;BME280;10759;51.982;9.232;2023-04-22T10:01:39;99611.47;;;21.82;43.85
21203;BME280;10759;51.982;9.232;2023-04-22T10:04:07;99605.16;;;21.81;43.63
21203;BME280;10759;51.982;9.232;2023-04-22T10:06:36;99611.78;;;21.79;43.74
21203;BME280;10759;51.982;9.232;2023-04-22T10:09:04;99611.72;;;21.98;45.54
21203;BME280;10759;51.982;9.232;2023-04-22T10:11:35;99613.31;;;22.19;43.51
21203;BME280;10759;51.982;9.232;2023-04-22T10:14:04;99607.00;;;22.28;43.54
21203;BME280;10759;51.982;9.232;2023-04-22T10:16:33;99605.88;;;22.21;43.62
21203;BME280;10759;51.982;9.232;2023-04-22T10:19:05;99609.06;;;22.06;42.44
21203;BME280;10759;51.982;9.232;2023-04-22T10:21:34;99599.41;;;22.22;44.14
21203;BME280;10759;51.982;9.232;2023-04-22T10:24:02;99597.50;;;21.95;43.48
21203;BME280;10759;51.982;9.232;2023-04-22T10:26:38;99600.44;;;22.11;44.11
21203;BME280;10759;51.982;9.232;2023-04-22T10:29:07;99594.38;;;22.17;44.17
21203;BME280;10759;51.982;9.232;2023-04-22T10:31:36;99569.72;;;22.09;43.90
21203;BME280;10759;51.982;9.232;2023-04-22T10:34:10;99585.88;;;22.30;44.21
21203;BME280;10759;51.982;9.232;2023-04-22T10:36:56;99588.47;;;22.49;43.07
21203;BME280;10759;51.982;9.232;2023-04-22T10:39:26;99581.03;;;22.42;42.31
21203;BME280;10759;51.982;9.232;2023-04-22T10:42:06;99582.28;;;22.29;42.27
21203;BME280;10759;51.982;9.232;2023-04-22T10:44:49;99582.31;;;22.20;43.31
21203;BME280;10759;51.982;9.232;2023-04-22T10:47:24;99579.78;;;22.36;44.56
21203;BME280;10759;51.982;9.232;2023-04-22T10:52:49;99574.97;;;22.30;42.21
21203;BME280;10759;51.982;9.232;2023-04-22T10:55:18;99580.19;;;22.41;40.72
21203;BME280;10759;51.982;9.232;2023-04-22T10:57:48;99575.31;;;22.45;41.18
21203;BME280;10759;51.982;9.232;2023-04-22T11:00:26;99568.03;;;22.54;42.23
21203;BME280;10759;51.982;9.232;2023-04-22T11:03:09;99574.13;;;22.47;42.19
21203;BME280;10759;51.982;9.232;2023-04-22T11:05:39;99566.94;;;22.46;41.59
21203;BME280;10759;51.982;9.232;2023-04-22T11:08:14;99508.41;;;22.13;41.30
21203;BME280;10759;51.982;9.232;2023-04-22T11:10:48;99563.81;;;22.41;41.55
21203;BME280;10759;51.982;9.232;2023-04-22T11:13:17;99541.59;;;22.54;42.72
21203;BME280;10759;51.982;9.232;2023-04-22T11:15:48;99554.38;;;22.71;41.78
21203;BME280;10759;51.982;9.232;2023-04-22T11:18:18;99549.19;;;22.78;41.30
21203;BME280;10759;51.982;9.232;2023-04-22T11:20:47;99542.16;;;22.76;41.03
21203;BME280;10759;51.982;9.232;2023-04-22T11:23:19;99527.94;;;22.54;40.90
21203;BME280;10759;51.982;9.232;2023-04-22T11:25:47;99536.38;;;22.61;41.80
21203;BME280;10759;51.982;9.232;2023-04-22T11:28:20;99538.25;;;22.78;42.89
21203;BME280;10759;51.982;9.232;2023-04-22T11:30:49;99542.00;;;22.77;41.75
21203;BME280;10759;51.982;9.232;2023-04-22T11:33:18;99531.78;;;22.61;42.81
21203;BME280;10759;51.982;9.232;2023-04-22T11:35:48;99532.03;;;22.68;40.55
21203;BME280;10759;51.982;9.232;2023-04-22T11:38:16;99528.44;;;22.67;42.42
21203;BME280;10759;51.982;9.232;2023-04-22T11:40:45;99519.06;;;22.70;42.15
21203;BME280;10759;51.982;9.232;2023-04-22T11:43:14;99523.13;;;23.02;42.04
21203;BME280;10759;51.982;9.232;2023-04-22T11:45:44;99522.00;;;22.94;41.11
21203;BME280;10759;51.982;9.232;2023-04-22T11:48:13;99532.47;;;22.81;41.43
21203;BME280;10759;51.982;9.232;2023-04-22T11:50:41;99495.06;;;22.56;40.08
21203;BME280;10759;51.982;9.232;2023-04-22T11:53:15;99522.88;;;22.95;42.49
21203;BME280;10759;51.982;9.232;2023-04-22T11:55:45;99507.53;;;23.20;40.82
21203;BME280;10759;51.982;9.232;2023-04-22T11:58:19;99528.44;;;23.55;42.25
21203;BME280;10759;51.982;9.232;2023-04-22T12:00:51;99521.81;;;23.66;41.99
21203;BME280;10759;51.982;9.232;2023-04-22T12:03:21;99522.16;;;23.63;40.95
21203;BME280;10759;51.982;9.232;2023-04-22T12:05:51;99510.31;;;23.81;40.60
21203;BME280;10759;51.982;9.232;2023-04-22T12:08:22;99510.22;;;23.72;40.92
21203;BME280;10759;51.982;9.232;2023-04-22T12:10:52;99509.13;;;23.57;39.93
21203;BME280;10759;51.982;9.232;2023-04-22T12:13:22;99499.75;;;23.60;39.70
21203;BME280;10759;51.982;9.232;2023-04-22T12:15:54;99501.88;;;23.48;39.42
21203;BME280;10759;51.982;9.232;2023-04-22T12:18:28;99443.09;;;23.09;39.49
21203;BME280;10759;51.982;9.232;2023-04-22T12:21:01;99508.25;;;23.22;40.03
21203;BME280;10759;51.982;9.232;2023-04-22T12:23:40;99493.53;;;23.23;40.36
21203;BME280;10759;51.982;9.232;2023-04-22T12:26:09;99488.97;;;23.24;41.53
21203;BME280;10759;51.982;9.232;2023-04-22T12:28:39;99499.59;;;23.61;41.89
21203;BME280;10759;51.982;9.232;2023-04-22T12:31:08;99490.28;;;23.46;40.21
21203;BME280;10759;51.982;9.232;2023-04-22T12:33:37;99490.94;;;23.40;40.63
21203;BME280;10759;51.982;9.232;2023-04-22T12:36:05;99496.88;;;23.35;40.39
21203;BME280;10759;51.982;9.232;2023-04-22T12:38:33;99478.44;;;23.11;40.26
21203;BME280;10759;51.982;9.232;2023-04-22T12:41:02;99492.44;;;23.08;39.35
21203;BME280;10759;51.982;9.232;2023-04-22T12:43:32;99481.91;;;22.95;40.34
21203;BME280;10759;51.982;9.232;2023-04-22T12:46:02;99489.25;;;22.94;41.42
21203;BME280;10759;51.982;9.232;2023-04-22T12:48:31;99488.69;;;23.09;41.56
21203;BME280;10759;51.982;9.232;2023-04-22T12:50:59;99494.44;;;23.24;39.82
21203;BME280;10759;51.982;9.232;2023-04-22T12:53:27;99481.81;;;23.05;39.15
21203;BME280;10759;51.982;9.232;2023-04-22T12:55:55;99489.22;;;22.50;39.11
21203;BME280;10759;51.982;9.232;2023-04-22T12:58:24;99479.00;;;23.14;39.00
21203;BME280;10759;51.982;9.232;2023-04-22T13:00:54;99455.03;;;23.34;39.46
21203;BME280;10759;51.982;9.232;2023-04-22T13:03:21;99474.78;;;23.54;38.93
21203;BME280;10759;51.982;9.232;2023-04-22T13:05:50;99468.53;;;23.70;38.64
21203;BME280;10759;51.982;9.232;2023-04-22T13:08:18;99474.75;;;23.81;38.66
21203;BME280;10759;51.982;9.232;2023-04-22T13:10:46;99471.28;;;23.70;38.63
21203;BME280;10759;51.982;9.232;2023-04-22T13:13:14;99471.31;;;23.78;38.63
21203;BME280;10759;51.982;9.232;2023-04-22T13:15:45;99456.00;;;23.60;36.93